sensor_id;sensor_type;location;lat;lon;timestamp;P1;durP1;ratioP1;P2;durP2;ratioP2
27013;SDS011;14556;52.222;4.510;2022-08-16T00:01:10;27.80;;;20.10;;
27013;SDS011;14556;52.222;4.510;2022-08-16T00:03:37;29.97;;;20.57;;
27013;SDS011;14556;52.222;4.510;2022-08-16T00:06:05;25.13;;;20.37;;
27013;SDS011;14556;52.222;4.510;2022-08-16T00:08:32;27.33;;;21.53;;
27013;SDS011;14556;52.222;4.510;2022-08-16T00:11:03;28.70;;;20.57;;
27013;SDS011;14556;52.222;4.510;2022-08-16T00:13:31;29.20;;;21.27;;
27013;SDS011;14556;52.222;4.510;2022-08-16T00:16:08;27.90;;;20.93;;
27013;SDS011;14556;52.222;4.510;2022-08-16T00:18:54;28.50;;;20.67;;
27013;SDS011;14556;52.222;4.510;2022-08-16T00:21:21;29.93;;;22.27;;
27013;SDS011;14556;52.222;4.510;2022-08-16T00:23:48;29.33;;;21.83;;
27013;SDS011;14556;52.222;4.510;2022-08-16T00:26:16;28.37;;;22.23;;
27013;SDS011;14556;52.222;4.510;2022-08-16T00:29:03;30.67;;;22.53;;
27013;SDS011;14556;52.222;4.510;2022-08-16T00:31:31;30.07;;;22.00;;
27013;SDS011;14556;52.222;4.510;2022-08-16T00:34:19;26.50;;;21.00;;
27013;SDS011;14556;52.222;4.510;2022-08-16T00:37:06;32.67;;;23.17;;
27013;SDS011;14556;52.222;4.510;2022-08-16T00:39:34;32.93;;;22.33;;
27013;SDS011;14556;52.222;4.510;2022-08-16T00:42:00;31.70;;;21.90;;
27013;SDS011;14556;52.222;4.510;2022-08-16T00:44:27;30.67;;;22.17;;
27013;SDS011;14556;52.222;4.510;2022-08-16T00:46:59;30.80;;;22.63;;
27013;SDS011;14556;52.222;4.510;2022-08-16T00:49:32;31.83;;;23.53;;
27013;SDS011;14556;52.222;4.510;2022-08-16T00:52:04;32.10;;;23.63;;
27013;SDS011;14556;52.222;4.510;2022-08-16T00:54:51;31.80;;;23.83;;
27013;SDS011;14556;52.222;4.510;2022-08-16T00:57:18;32.53;;;23.17;;
27013;SDS011;14556;52.222;4.510;2022-08-16T00:59:49;30.20;;;22.73;;
27013;SDS011;14556;52.222;4.510;2022-08-16T01:02:24;32.13;;;22.83;;
27013;SDS011;14556;52.222;4.510;2022-08-16T01:04:58;29.07;;;21.73;;
27013;SDS011;14556;52.222;4.510;2022-08-16T01:07:36;34.23;;;22.90;;
27013;SDS011;14556;52.222;4.510;2022-08-16T01:10:17;31.43;;;21.80;;
27013;SDS011;14556;52.222;4.510;2022-08-16T01:12:44;29.43;;;21.20;;
27013;SDS011;14556;52.222;4.510;2022-08-16T01:15:11;30.27;;;23.03;;
27013;SDS011;14556;52.222;4.510;2022-08-16T01:17:38;33.63;;;24.03;;
27013;SDS011;14556;52.222;4.510;2022-08-16T01:20:07;30.13;;;22.43;;
27013;SDS011;14556;52.222;4.510;2022-08-16T01:22:58;32.13;;;23.33;;
27013;SDS011;14556;52.222;4.510;2022-08-16T01:25:46;32.33;;;22.17;;
27013;SDS011;14556;52.222;4.510;2022-08-16T01:28:37;33.90;;;22.77;;
27013;SDS011;14556;52.222;4.510;2022-08-16T01:31:10;31.07;;;23.13;;
27013;SDS011;14556;52.222;4.510;2022-08-16T01:33:39;29.13;;;22.37;;
27013;SDS011;14556;52.222;4.510;2022-08-16T01:36:09;32.80;;;23.37;;
27013;SDS011;14556;52.222;4.510;2022-08-16T01:38:39;34.90;;;23.50;;
27013;SDS011;14556;52.222;4.510;2022-08-16T01:41:19;34.67;;;24.20;;
27013;SDS011;14556;52.222;4.510;2022-08-16T01:43:49;33.00;;;22.90;;
27013;SDS011;14556;52.222;4.510;2022-08-16T01:49:07;33.70;;;22.63;;
27013;SDS011;14556;52.222;4.510;2022-08-16T01:52:11;30.17;;;21.87;;
27013;SDS011;14556;52.222;4.510;2022-08-16T01:54:55;31.80;;;22.63;;
27013;SDS011;14556;52.222;4.510;2022-08-16T01:57:22;35.77;;;23.70;;
27013;SDS011;14556;52.222;4.510;2022-08-16T01:59:50;32.80;;;22.60;;
27013;SDS011;14556;52.222;4.510;2022-08-16T02:02:20;31.77;;;22.93;;
27013;SDS011;14556;52.222;4.510;2022-08-16T02:04:54;31.37;;;21.50;;
27013;SDS011;14556;52.222;4.510;2022-08-16T02:07:22;30.77;;;21.57;;
27013;SDS011;14556;52.222;4.510;2022-08-16T02:09:50;29.40;;;22.07;;
27013;SDS011;14556;52.222;4.510;2022-08-16T02:12:24;33.57;;;22.83;;
27013;SDS011;14556;52.222;4.510;2022-08-16T02:15:11;33.57;;;22.73;;
27013;SDS011;14556;52.222;4.510;2022-08-16T02:17:39;33.33;;;23.67;;
27013;SDS011;14556;52.222;4.510;2022-08-16T02:20:06;31.20;;;22.20;;
27013;SDS011;14556;52.222;4.510;2022-08-16T02:22:37;32.23;;;22.23;;
27013;SDS011;14556;52.222;4.510;2022-08-16T02:25:07;33.90;;;22.97;;
27013;SDS011;14556;52.222;4.510;2022-08-16T02:27:37;32.03;;;22.87;;
27013;SDS011;14556;52.222;4.510;2022-08-16T02:30:07;32.90;;;23.37;;
27013;SDS011;14556;52.222;4.510;2022-08-16T02:32:59;32.20;;;22.53;;
27013;SDS011;14556;52.222;4.510;2022-08-16T02:35:28;32.70;;;22.60;;
27013;SDS011;14556;52.222;4.510;2022-08-16T02:37:55;27.37;;;20.13;;
27013;SDS011;14556;52.222;4.510;2022-08-16T02:40:26;28.03;;;20.77;;
27013;SDS011;14556;52.222;4.510;2022-08-16T02:42:54;34.03;;;21.60;;
27013;SDS011;14556;52.222;4.510;2022-08-16T02:45:22;28.17;;;21.73;;
27013;SDS011;14556;52.222;4.510;2022-08-16T02:47:53;32.57;;;21.80;;
27013;SDS011;14556;52.222;4.510;2022-08-16T02:50:40;31.83;;;21.87;;
27013;SDS011;14556;52.222;4.510;2022-08-16T02:53:27;34.63;;;22.00;;
27013;SDS011;14556;52.222;4.510;2022-08-16T02:55:54;28.90;;;21.43;;
27013;SDS011;14556;52.222;4.510;2022-08-16T02:58:21;28.73;;;20.60;;
27013;SDS011;14556;52.222;4.510;2022-08-16T03:00:50;32.27;;;22.37;;
27013;SDS011;14556;52.222;4.510;2022-08-16T03:03:23;33.97;;;21.70;;
27013;SDS011;14556;52.222;4.510;2022-08-16T03:05:51;32.57;;;22.03;;
27013;SDS011;14556;52.222;4.510;2022-08-16T03:08:19;27.80;;;20.23;;
27013;SDS011;14556;52.222;4.510;2022-08-16T03:11:07;30.10;;;21.43;;
27013;SDS011;14556;52.222;4.510;2022-08-16T03:13:47;27.13;;;20.03;;
27013;SDS011;14556;52.222;4.510;2022-08-16T03:16:17;29.00;;;21.07;;
27013;SDS011;14556;52.222;4.510;2022-08-16T03:19:04;27.47;;;21.27;;
27013;SDS011;14556;52.222;4.510;2022-08-16T03:21:32;28.03;;;20.63;;
27013;SDS011;14556;52.222;4.510;2022-08-16T03:24:07;27.17;;;20.17;;
27013;SDS011;14556;52.222;4.510;2022-08-16T03:26:54;27.90;;;19.67;;
27013;SDS011;14556;52.222;4.510;2022-08-16T03:29:24;29.43;;;19.70;;
27013;SDS011;14556;52.222;4.510;2022-08-16T03:31:58;28.43;;;19.40;;
27013;SDS011;14556;52.222;4.510;2022-08-16T03:34:27;26.47;;;17.97;;
27013;SDS011;14556;52.222;4.510;2022-08-16T03:36:55;29.97;;;21.23;;
27013;SDS011;14556;52.222;4.510;2022-08-16T03:39:22;26.90;;;20.97;;
27013;SDS011;14556;52.222;4.510;2022-08-16T03:41:49;26.43;;;19.73;;
27013;SDS011;14556;52.222;4.510;2022-08-16T03:44:25;25.57;;;18.40;;
27013;SDS011;14556;52.222;4.510;2022-08-16T03:47:12;22.67;;;16.63;;
27013;SDS011;14556;52.222;4.510;2022-08-16T03:49:44;27.87;;;19.37;;
27013;SDS011;14556;52.222;4.510;2022-08-16T03:52:17;31.10;;;19.40;;
27013;SDS011;14556;52.222;4.510;2022-08-16T03:54:45;25.83;;;19.53;;
27013;SDS011;14556;52.222;4.510;2022-08-16T03:57:25;26.03;;;18.33;;
27013;SDS011;14556;52.222;4.510;2022-08-16T04:00:10;25.93;;;19.07;;
27013;SDS011;14556;52.222;4.510;2022-08-16T04:03:00;25.20;;;18.73;;
27013;SDS011;14556;52.222;4.510;2022-08-16T04:05:34;30.73;;;20.67;;
27013;SDS011;14556;52.222;4.510;2022-08-16T04:08:03;28.70;;;20.40;;
27013;SDS011;14556;52.222;4.510;2022-08-16T04:10:49;31.43;;;20.53;;
27013;SDS011;14556;52.222;4.510;2022-08-16T04:13:18;27.97;;;20.13;;
27013;SDS011;14556;52.222;4.510;2022-08-16T04:16:04;25.87;;;19.23;;
27013;SDS011;14556;52.222;4.510;2022-08-16T04:18:31;27.80;;;19.07;;
27013;SDS011;14556;52.222;4.510;2022-08-16T04:20:58;24.37;;;18.27;;
27013;SDS011;14556;52.222;4.510;2022-08-16T04:23:24;25.27;;;18.30;;
27013;SDS011;14556;52.222;4.510;2022-08-16T04:25:51;32.53;;;19.90;;
27013;SDS011;14556;52.222;4.510;2022-08-16T04:28:18;24.07;;;17.63;;
27013;SDS011;14556;52.222;4.510;2022-08-16T04:31:05;27.47;;;19.53;;
27013;SDS011;14556;52.222;4.510;2022-08-16T04:33:35;27.63;;;20.20;;
27013;SDS011;14556;52.222;4.510;2022-08-16T04:36:02;25.30;;;18.00;;
27013;SDS011;14556;52.222;4.510;2022-08-16T04:38:31;31.30;;;20.30;;
27013;SDS011;14556;52.222;4.510;2022-08-16T04:40:57;28.20;;;20.73;;
27013;SDS011;14556;52.222;4.510;2022-08-16T04:43:25;30.83;;;21.50;;
27013;SDS011;14556;52.222;4.510;2022-08-16T04:45:52;28.47;;;19.63;;
27013;SDS011;14556;52.222;4.510;2022-08-16T04:48:26;26.93;;;16.67;;
27013;SDS011;14556;52.222;4.510;2022-08-16T04:50:59;31.77;;;20.40;;
27013;SDS011;14556;52.222;4.510;2022-08-16T04:53:33;23.83;;;17.53;;
27013;SDS011;14556;52.222;4.510;2022-08-16T04:55:59;29.73;;;19.27;;
27013;SDS011;14556;52.222;4.510;2022-08-16T04:58:26;27.67;;;17.23;;
27013;SDS011;14556;52.222;4.510;2022-08-16T05:01:11;27.57;;;18.57;;
27013;SDS011;14556;52.222;4.510;2022-08-16T05:03:40;24.80;;;16.93;;
27013;SDS011;14556;52.222;4.510;2022-08-16T05:06:26;25.43;;;18.40;;
27013;SDS011;14556;52.222;4.510;2022-08-16T05:09:10;30.37;;;21.00;;
27013;SDS011;14556;52.222;4.510;2022-08-16T05:11:37;28.53;;;19.80;;
27013;SDS011;14556;52.222;4.510;2022-08-16T05:14:04;27.50;;;19.27;;
27013;SDS011;14556;52.222;4.510;2022-08-16T05:16:32;28.23;;;21.17;;
27013;SDS011;14556;52.222;4.510;2022-08-16T05:18:59;32.97;;;21.30;;
27013;SDS011;14556;52.222;4.510;2022-08-16T05:21:27;32.73;;;21.50;;
27013;SDS011;14556;52.222;4.510;2022-08-16T05:24:04;35.70;;;22.33;;
27013;SDS011;14556;52.222;4.510;2022-08-16T05:26:33;24.33;;;16.83;;
27013;SDS011;14556;52.222;4.510;2022-08-16T05:29:06;37.30;;;23.17;;
27013;SDS011;14556;52.222;4.510;2022-08-16T05:31:36;37.93;;;24.17;;
27013;SDS011;14556;52.222;4.510;2022-08-16T05:34:13;35.67;;;23.60;;
27013;SDS011;14556;52.222;4.510;2022-08-16T05:36:45;31.73;;;22.63;;
27013;SDS011;14556;52.222;4.510;2022-08-16T05:39:16;31.13;;;22.63;;
27013;SDS011;14556;52.222;4.510;2022-08-16T05:41:45;25.10;;;18.40;;
27013;SDS011;14556;52.222;4.510;2022-08-16T05:44:14;27.10;;;18.07;;
27013;SDS011;14556;52.222;4.510;2022-08-16T05:46:53;34.50;;;23.73;;
27013;SDS011;14556;52.222;4.510;2022-08-16T05:49:21;27.83;;;20.23;;
27013;SDS011;14556;52.222;4.510;2022-08-16T05:51:48;33.37;;;23.47;;
27013;SDS011;14556;52.222;4.510;2022-08-16T05:54:16;32.13;;;22.03;;
27013;SDS011;14556;52.222;4.510;2022-08-16T05:56:51;30.13;;;20.70;;
27013;SDS011;14556;52.222;4.510;2022-08-16T05:59:17;34.67;;;22.37;;
27013;SDS011;14556;52.222;4.510;2022-08-16T06:01:44;24.00;;;18.30;;
27013;SDS011;14556;52.222;4.510;2022-08-16T06:04:12;26.60;;;18.33;;
27013;SDS011;14556;52.222;4.510;2022-08-16T06:06:59;30.93;;;20.87;;
27013;SDS011;14556;52.222;4.510;2022-08-16T06:09:32;29.67;;;19.87;;
27013;SDS011;14556;52.222;4.510;2022-08-16T06:12:09;33.87;;;22.73;;
27013;SDS011;14556;52.222;4.510;2022-08-16T06:14:37;32.43;;;22.03;;
27013;SDS011;14556;52.222;4.510;2022-08-16T06:17:05;35.77;;;24.47;;
27013;SDS011;14556;52.222;4.510;2022-08-16T06:19:32;34.00;;;21.17;;
27013;SDS011;14556;52.222;4.510;2022-08-16T06:22:00;27.97;;;17.87;;
27013;SDS011;14556;52.222;4.510;2022-08-16T06:24:27;29.03;;;20.10;;
27013;SDS011;14556;52.222;4.510;2022-08-16T06:27:13;31.43;;;21.47;;
27013;SDS011;14556;52.222;4.510;2022-08-16T06:29:42;26.87;;;20.37;;
27013;SDS011;14556;52.222;4.510;2022-08-16T06:32:15;32.13;;;20.43;;
27013;SDS011;14556;52.222;4.510;2022-08-16T06:34:54;36.87;;;23.90;;
27013;SDS011;14556;52.222;4.510;2022-08-16T06:37:28;31.77;;;19.80;;
27013;SDS011;14556;52.222;4.510;2022-08-16T06:40:03;32.40;;;22.20;;
27013;SDS011;14556;52.222;4.510;2022-08-16T06:42:38;45.03;;;25.10;;
27013;SDS011;14556;52.222;4.510;2022-08-16T06:45:13;44.37;;;25.83;;
27013;SDS011;14556;52.222;4.510;2022-08-16T06:47:40;29.17;;;19.27;;
27013;SDS011;14556;52.222;4.510;2022-08-16T06:50:20;29.43;;;19.47;;
27013;SDS011;14556;52.222;4.510;2022-08-16T06:52:55;40.90;;;23.07;;
27013;SDS011;14556;52.222;4.510;2022-08-16T06:55:26;38.20;;;24.07;;
27013;SDS011;14556;52.222;4.510;2022-08-16T06:57:59;42.93;;;26.67;;
27013;SDS011;14556;52.222;4.510;2022-08-16T07:00:33;43.20;;;25.83;;
27013;SDS011;14556;52.222;4.510;2022-08-16T07:03:03;37.17;;;21.57;;
27013;SDS011;14556;52.222;4.510;2022-08-16T07:05:50;37.40;;;21.83;;
27013;SDS011;14556;52.222;4.510;2022-08-16T07:08:19;40.97;;;24.83;;
27013;SDS011;14556;52.222;4.510;2022-08-16T07:10:45;37.13;;;23.23;;
27013;SDS011;14556;52.222;4.510;2022-08-16T07:13:13;35.67;;;22.77;;
27013;SDS011;14556;52.222;4.510;2022-08-16T07:15:56;42.83;;;25.50;;
27013;SDS011;14556;52.222;4.510;2022-08-16T07:18:25;40.23;;;27.43;;
27013;SDS011;14556;52.222;4.510;2022-08-16T07:20:51;33.67;;;20.83;;
27013;SDS011;14556;52.222;4.510;2022-08-16T07:23:19;44.37;;;25.03;;
27013;SDS011;14556;52.222;4.510;2022-08-16T07:26:03;39.33;;;24.03;;
27013;SDS011;14556;52.222;4.510;2022-08-16T07:28:30;33.40;;;21.07;;
27013;SDS011;14556;52.222;4.510;2022-08-16T07:30:56;35.67;;;22.50;;
27013;SDS011;14556;52.222;4.510;2022-08-16T07:33:25;32.67;;;22.97;;
27013;SDS011;14556;52.222;4.510;2022-08-16T07:36:12;38.67;;;25.17;;
27013;SDS011;14556;52.222;4.510;2022-08-16T07:38:47;47.67;;;26.10;;
27013;SDS011;14556;52.222;4.510;2022-08-16T07:41:15;40.87;;;24.83;;
27013;SDS011;14556;52.222;4.510;2022-08-16T07:43:41;35.70;;;24.37;;
27013;SDS011;14556;52.222;4.510;2022-08-16T07:46:08;31.87;;;21.40;;
27013;SDS011;14556;52.222;4.510;2022-08-16T07:48:55;35.60;;;23.10;;
27013;SDS011;14556;52.222;4.510;2022-08-16T07:51:28;30.73;;;21.37;;
27013;SDS011;14556;52.222;4.510;2022-08-16T07:54:03;28.33;;;20.60;;
27013;SDS011;14556;52.222;4.510;2022-08-16T07:56:35;29.43;;;19.90;;
27013;SDS011;14556;52.222;4.510;2022-08-16T07:59:03;30.67;;;21.20;;
27013;SDS011;14556;52.222;4.510;2022-08-16T08:01:29;30.73;;;21.33;;
27013;SDS011;14556;52.222;4.510;2022-08-16T08:03:57;32.73;;;21.43;;
27013;SDS011;14556;52.222;4.510;2022-08-16T08:06:25;27.23;;;19.53;;
27013;SDS011;14556;52.222;4.510;2022-08-16T08:08:54;25.23;;;18.90;;
27013;SDS011;14556;52.222;4.510;2022-08-16T08:11:24;28.17;;;17.77;;
27013;SDS011;14556;52.222;4.510;2022-08-16T08:13:54;24.03;;;18.80;;
27013;SDS011;14556;52.222;4.510;2022-08-16T08:16:28;27.40;;;17.47;;
27013;SDS011;14556;52.222;4.510;2022-08-16T08:18:55;27.13;;;18.37;;
27013;SDS011;14556;52.222;4.510;2022-08-16T08:21:27;24.77;;;17.43;;
27013;SDS011;14556;52.222;4.510;2022-08-16T08:24:14;29.43;;;18.90;;
27013;SDS011;14556;52.222;4.510;2022-08-16T08:26:42;28.90;;;17.77;;
27013;SDS011;14556;52.222;4.510;2022-08-16T08:29:09;25.60;;;17.20;;
27013;SDS011;14556;52.222;4.510;2022-08-16T08:31:37;22.07;;;14.90;;
27013;SDS011;14556;52.222;4.510;2022-08-16T08:34:06;21.77;;;16.60;;
27013;SDS011;14556;52.222;4.510;2022-08-16T08:36:33;19.33;;;15.37;;
27013;SDS011;14556;52.222;4.510;2022-08-16T08:39:05;22.23;;;15.03;;
27013;SDS011;14556;52.222;4.510;2022-08-16T08:41:38;20.87;;;15.30;;
27013;SDS011;14556;52.222;4.510;2022-08-16T08:44:05;20.70;;;14.30;;
27013;SDS011;14556;52.222;4.510;2022-08-16T08:46:52;20.10;;;13.47;;
27013;SDS011;14556;52.222;4.510;2022-08-16T08:49:26;21.17;;;14.97;;
27013;SDS011;14556;52.222;4.510;2022-08-16T08:52:13;20.67;;;13.57;;
27013;SDS011;14556;52.222;4.510;2022-08-16T08:55:00;19.77;;;13.07;;
27013;SDS011;14556;52.222;4.510;2022-08-16T08:57:40;15.87;;;12.50;;
27013;SDS011;14556;52.222;4.510;2022-08-16T09:00:09;17.90;;;12.17;;
27013;SDS011;14556;52.222;4.510;2022-08-16T09:02:42;17.83;;;13.17;;
27013;SDS011;14556;52.222;4.510;2022-08-16T09:05:17;14.60;;;12.00;;
27013;SDS011;14556;52.222;4.510;2022-08-16T09:07:47;15.67;;;12.53;;
27013;SDS011;14556;52.222;4.510;2022-08-16T09:10:26;17.67;;;12.67;;
27013;SDS011;14556;52.222;4.510;2022-08-16T09:12:54;21.63;;;12.73;;
27013;SDS011;14556;52.222;4.510;2022-08-16T09:15:21;20.07;;;13.60;;
27013;SDS011;14556;52.222;4.510;2022-08-16T09:17:49;19.10;;;14.07;;
27013;SDS011;14556;52.222;4.510;2022-08-16T09:20:21;21.57;;;14.17;;
27013;SDS011;14556;52.222;4.510;2022-08-16T09:22:50;17.90;;;12.67;;
27013;SDS011;14556;52.222;4.510;2022-08-16T09:25:19;17.50;;;13.20;;
27013;SDS011;14556;52.222;4.510;2022-08-16T09:28:00;21.70;;;14.93;;
27013;SDS011;14556;52.222;4.510;2022-08-16T09:30:33;21.47;;;14.17;;
27013;SDS011;14556;52.222;4.510;2022-08-16T09:33:09;22.90;;;15.90;;
27013;SDS011;14556;52.222;4.510;2022-08-16T09:35:37;16.77;;;12.50;;
27013;SDS011;14556;52.222;4.510;2022-08-16T09:38:07;22.97;;;14.83;;
27013;SDS011;14556;52.222;4.510;2022-08-16T09:40:37;23.20;;;14.80;;
27013;SDS011;14556;52.222;4.510;2022-08-16T09:43:09;27.83;;;14.67;;
27013;SDS011;14556;52.222;4.510;2022-08-16T09:45:57;21.50;;;16.57;;
27013;SDS011;14556;52.222;4.510;2022-08-16T09:48:25;17.43;;;12.67;;
27013;SDS011;14556;52.222;4.510;2022-08-16T09:51:12;23.60;;;14.17;;
27013;SDS011;14556;52.222;4.510;2022-08-16T09:53:39;18.33;;;14.43;;
27013;SDS011;14556;52.222;4.510;2022-08-16T09:56:15;25.93;;;14.80;;
27013;SDS011;14556;52.222;4.510;2022-08-16T09:58:51;19.40;;;14.53;;
27013;SDS011;14556;52.222;4.510;2022-08-16T10:01:34;20.60;;;14.87;;
27013;SDS011;14556;52.222;4.510;2022-08-16T10:04:03;18.33;;;13.13;;
27013;SDS011;14556;52.222;4.510;2022-08-16T10:06:51;19.07;;;14.93;;
27013;SDS011;14556;52.222;4.510;2022-08-16T10:09:23;20.30;;;15.40;;
27013;SDS011;14556;52.222;4.510;2022-08-16T10:11:50;20.93;;;14.20;;
27013;SDS011;14556;52.222;4.510;2022-08-16T10:14:44;18.33;;;13.20;;
27013;SDS011;14556;52.222;4.510;2022-08-16T10:17:11;20.53;;;14.67;;
27013;SDS011;14556;52.222;4.510;2022-08-16T10:19:38;17.17;;;12.57;;
27013;SDS011;14556;52.222;4.510;2022-08-16T10:22:04;19.43;;;13.80;;
27013;SDS011;14556;52.222;4.510;2022-08-16T10:24:31;21.80;;;13.40;;
27013;SDS011;14556;52.222;4.510;2022-08-16T10:26:59;16.87;;;12.20;;
27013;SDS011;14556;52.222;4.510;2022-08-16T10:29:46;16.03;;;11.93;;
27013;SDS011;14556;52.222;4.510;2022-08-16T10:32:26;17.00;;;11.97;;
27013;SDS011;14556;52.222;4.510;2022-08-16T10:34:57;17.07;;;12.77;;
27013;SDS011;14556;52.222;4.510;2022-08-16T10:37:24;15.50;;;13.40;;
27013;SDS011;14556;52.222;4.510;2022-08-16T10:40:01;18.77;;;12.47;;
27013;SDS011;14556;52.222;4.510;2022-08-16T10:42:27;17.17;;;12.90;;
27013;SDS011;14556;52.222;4.510;2022-08-16T10:44:55;21.53;;;14.43;;
27013;SDS011;14556;52.222;4.510;2022-08-16T10:47:21;18.43;;;12.87;;
27013;SDS011;14556;52.222;4.510;2022-08-16T10:49:48;24.17;;;15.40;;
27013;SDS011;14556;52.222;4.510;2022-08-16T10:52:15;18.93;;;13.87;;
27013;SDS011;14556;52.222;4.510;2022-08-16T10:54:44;17.37;;;12.80;;
27013;SDS011;14556;52.222;4.510;2022-08-16T10:57:31;17.87;;;11.80;;
27013;SDS011;14556;52.222;4.510;2022-08-16T10:59:58;18.43;;;11.97;;
27013;SDS011;14556;52.222;4.510;2022-08-16T11:02:26;18.40;;;12.60;;
27013;SDS011;14556;52.222;4.510;2022-08-16T11:05:14;18.60;;;12.00;;
27013;SDS011;14556;52.222;4.510;2022-08-16T11:07:43;17.70;;;12.10;;
27013;SDS011;14556;52.222;4.510;2022-08-16T11:10:21;16.17;;;12.20;;
27013;SDS011;14556;52.222;4.510;2022-08-16T11:13:11;19.27;;;12.47;;
27013;SDS011;14556;52.222;4.510;2022-08-16T11:16:07;18.03;;;12.63;;
27013;SDS011;14556;52.222;4.510;2022-08-16T11:18:52;14.17;;;11.13;;
27013;SDS011;14556;52.222;4.510;2022-08-16T11:21:31;18.57;;;13.27;;
27013;SDS011;14556;52.222;4.510;2022-08-16T11:24:00;20.53;;;13.23;;
27013;SDS011;14556;52.222;4.510;2022-08-16T11:26:27;19.57;;;12.83;;
27013;SDS011;14556;52.222;4.510;2022-08-16T11:28:55;19.07;;;13.27;;
27013;SDS011;14556;52.222;4.510;2022-08-16T11:31:39;16.30;;;10.73;;
27013;SDS011;14556;52.222;4.510;2022-08-16T11:34:19;16.67;;;11.20;;
27013;SDS011;14556;52.222;4.510;2022-08-16T11:36:46;16.70;;;12.17;;
27013;SDS011;14556;52.222;4.510;2022-08-16T11:39:27;15.97;;;11.53;;
27013;SDS011;14556;52.222;4.510;2022-08-16T11:41:57;16.40;;;11.17;;
27013;SDS011;14556;52.222;4.510;2022-08-16T11:44:23;12.47;;;10.33;;
27013;SDS011;14556;52.222;4.510;2022-08-16T11:47:10;18.17;;;11.17;;
27013;SDS011;14556;52.222;4.510;2022-08-16T11:49:38;19.80;;;13.50;;
27013;SDS011;14556;52.222;4.510;2022-08-16T11:52:05;21.37;;;12.70;;
27013;SDS011;14556;52.222;4.510;2022-08-16T11:54:32;17.97;;;12.73;;
27013;SDS011;14556;52.222;4.510;2022-08-16T11:57:03;19.50;;;10.77;;
27013;SDS011;14556;52.222;4.510;2022-08-16T11:59:34;18.40;;;12.20;;
27013;SDS011;14556;52.222;4.510;2022-08-16T12:02:05;23.43;;;14.23;;
27013;SDS011;14556;52.222;4.510;2022-08-16T12:04:54;17.03;;;12.17;;
27013;SDS011;14556;52.222;4.510;2022-08-16T12:07:20;16.53;;;11.83;;
27013;SDS011;14556;52.222;4.510;2022-08-16T12:09:49;17.77;;;13.27;;
27013;SDS011;14556;52.222;4.510;2022-08-16T12:12:18;18.70;;;13.00;;
27013;SDS011;14556;52.222;4.510;2022-08-16T12:14:45;21.13;;;13.33;;
27013;SDS011;14556;52.222;4.510;2022-08-16T12:17:11;19.27;;;12.40;;
27013;SDS011;14556;52.222;4.510;2022-08-16T12:19:39;23.60;;;12.70;;
27013;SDS011;14556;52.222;4.510;2022-08-16T12:22:06;18.30;;;12.97;;
27013;SDS011;14556;52.222;4.510;2022-08-16T12:24:44;18.23;;;14.60;;
27013;SDS011;14556;52.222;4.510;2022-08-16T12:27:16;18.93;;;13.20;;
27013;SDS011;14556;52.222;4.510;2022-08-16T12:29:43;23.83;;;15.23;;
27013;SDS011;14556;52.222;4.510;2022-08-16T12:32:09;18.27;;;12.63;;
27013;SDS011;14556;52.222;4.510;2022-08-16T12:34:56;19.77;;;12.20;;
27013;SDS011;14556;52.222;4.510;2022-08-16T12:37:24;24.73;;;14.67;;
27013;SDS011;14556;52.222;4.510;2022-08-16T12:39:53;18.50;;;14.60;;
27013;SDS011;14556;52.222;4.510;2022-08-16T12:42:24;21.77;;;14.07;;
27013;SDS011;14556;52.222;4.510;2022-08-16T12:45:01;18.83;;;12.10;;
27013;SDS011;14556;52.222;4.510;2022-08-16T12:47:33;23.60;;;13.60;;
27013;SDS011;14556;52.222;4.510;2022-08-16T12:50:35;19.73;;;12.70;;
27013;SDS011;14556;52.222;4.510;2022-08-16T12:53:01;13.27;;;11.00;;
27013;SDS011;14556;52.222;4.510;2022-08-16T12:55:28;16.10;;;12.67;;
27013;SDS011;14556;52.222;4.510;2022-08-16T12:58:06;17.43;;;12.97;;
27013;SDS011;14556;52.222;4.510;2022-08-16T13:00:53;19.17;;;12.03;;
27013;SDS011;14556;52.222;4.510;2022-08-16T13:03:19;20.90;;;13.23;;
27013;SDS011;14556;52.222;4.510;2022-08-16T13:05:46;17.83;;;13.13;;
27013;SDS011;14556;52.222;4.510;2022-08-16T13:08:21;17.37;;;13.50;;
27013;SDS011;14556;52.222;4.510;2022-08-16T13:10:55;19.30;;;13.27;;
27013;SDS011;14556;52.222;4.510;2022-08-16T13:13:23;22.10;;;12.40;;
27013;SDS011;14556;52.222;4.510;2022-08-16T13:15:52;18.23;;;12.60;;
27013;SDS011;14556;52.222;4.510;2022-08-16T13:18:26;15.37;;;12.00;;
27013;SDS011;14556;52.222;4.510;2022-08-16T13:21:00;15.80;;;11.63;;
27013;SDS011;14556;52.222;4.510;2022-08-16T13:23:31;21.23;;;12.23;;
27013;SDS011;14556;52.222;4.510;2022-08-16T13:26:01;16.67;;;11.67;;
27013;SDS011;14556;52.222;4.510;2022-08-16T13:28:28;19.87;;;10.90;;
27013;SDS011;14556;52.222;4.510;2022-08-16T13:30:55;16.57;;;11.73;;
27013;SDS011;14556;52.222;4.510;2022-08-16T13:33:27;16.20;;;13.37;;
27013;SDS011;14556;52.222;4.510;2022-08-16T13:35:59;15.77;;;11.93;;
27013;SDS011;14556;52.222;4.510;2022-08-16T13:38:26;16.30;;;11.17;;
27013;SDS011;14556;52.222;4.510;2022-08-16T13:41:02;17.10;;;11.17;;
27013;SDS011;14556;52.222;4.510;2022-08-16T13:43:33;15.37;;;11.03;;
27013;SDS011;14556;52.222;4.510;2022-08-16T13:46:00;17.27;;;11.77;;
27013;SDS011;14556;52.222;4.510;2022-08-16T13:48:30;18.53;;;12.10;;
27013;SDS011;14556;52.222;4.510;2022-08-16T13:51:10;16.00;;;11.10;;
27013;SDS011;14556;52.222;4.510;2022-08-16T13:53:43;11.90;;;10.17;;
27013;SDS011;14556;52.222;4.510;2022-08-16T13:56:20;15.13;;;10.53;;
27013;SDS011;14556;52.222;4.510;2022-08-16T13:58:51;17.93;;;12.10;;
27013;SDS011;14556;52.222;4.510;2022-08-16T14:01:20;15.03;;;10.43;;
27013;SDS011;14556;52.222;4.510;2022-08-16T14:03:47;16.43;;;11.17;;
27013;SDS011;14556;52.222;4.510;2022-08-16T14:06:14;16.63;;;11.63;;
27013;SDS011;14556;52.222;4.510;2022-08-16T14:08:44;17.43;;;11.20;;
27013;SDS011;14556;52.222;4.510;2022-08-16T14:11:31;15.53;;;10.83;;
27013;SDS011;14556;52.222;4.510;2022-08-16T14:13:57;18.10;;;11.77;;
27013;SDS011;14556;52.222;4.510;2022-08-16T14:16:24;15.37;;;12.07;;
27013;SDS011;14556;52.222;4.510;2022-08-16T14:18:59;17.07;;;11.10;;
27013;SDS011;14556;52.222;4.510;2022-08-16T14:21:27;17.00;;;11.70;;
27013;SDS011;14556;52.222;4.510;2022-08-16T14:24:01;15.53;;;11.37;;
27013;SDS011;14556;52.222;4.510;2022-08-16T14:26:49;13.40;;;10.40;;
27013;SDS011;14556;52.222;4.510;2022-08-16T14:29:15;13.43;;;10.33;;
27013;SDS011;14556;52.222;4.510;2022-08-16T14:31:47;14.47;;;10.43;;
27013;SDS011;14556;52.222;4.510;2022-08-16T14:34:19;12.97;;;9.10;;
27013;SDS011;14556;52.222;4.510;2022-08-16T14:36:46;11.23;;;9.73;;
27013;SDS011;14556;52.222;4.510;2022-08-16T14:39:17;12.90;;;9.60;;
27013;SDS011;14556;52.222;4.510;2022-08-16T14:41:43;15.70;;;9.73;;
27013;SDS011;14556;52.222;4.510;2022-08-16T14:44:10;14.20;;;10.90;;
27013;SDS011;14556;52.222;4.510;2022-08-16T14:46:36;17.17;;;11.63;;
27013;SDS011;14556;52.222;4.510;2022-08-16T14:49:03;17.27;;;12.03;;
27013;SDS011;14556;52.222;4.510;2022-08-16T14:51:34;12.60;;;11.30;;
27013;SDS011;14556;52.222;4.510;2022-08-16T14:54:00;18.17;;;12.53;;
27013;SDS011;14556;52.222;4.510;2022-08-16T14:56:28;16.13;;;12.07;;